createdAt,value
2019-01-14T00:02:24.271Z,8.40
2019-01-14T00:04:55.540Z,8.30
2019-01-14T00:07:18.623Z,8.20
2019-01-14T00:09:44.803Z,8.20
2019-01-14T00:12:11.049Z,8.20
2019-01-14T00:14:37.248Z,8.10
2019-01-14T00:17:05.104Z,8.10
2019-01-14T00:19:31.415Z,8.10
2019-01-14T00:21:57.905Z,8.00
2019-01-14T00:24:24.107Z,8.00
2019-01-14T00:26:50.478Z,8.00
2019-01-14T00:29:16.658Z,8.00
2019-01-14T00:31:42.883Z,8.00
2019-01-14T00:34:09.724Z,8.00
2019-01-14T00:36:35.988Z,8.00
2019-01-14T00:39:05.510Z,8.00
2019-01-14T00:41:32.019Z,8.00
2019-01-14T00:43:58.249Z,8.00
2019-01-14T00:46:24.468Z,8.00
2019-01-14T00:48:51.000Z,8.00
2019-01-14T00:51:17.180Z,8.10
2019-01-14T00:53:43.662Z,8.10
2019-01-14T00:56:09.897Z,8.10
2019-01-14T00:58:36.108Z,8.10
2019-01-14T01:01:02.540Z,8.10
2019-01-14T01:03:29.037Z,8.10
2019-01-14T01:05:55.201Z,8.00
2019-01-14T01:08:21.437Z,8.00
2019-01-14T01:10:47.687Z,7.90
2019-01-14T01:13:14.289Z,7.90
2019-01-14T01:15:40.570Z,7.80
2019-01-14T01:18:06.791Z,7.70
2019-01-14T01:20:33.419Z,7.70
2019-01-14T01:22:59.634Z,7.60
2019-01-14T01:25:25.979Z,7.50
2019-01-14T01:27:52.228Z,7.50
2019-01-14T01:30:18.407Z,7.40
2019-01-14T01:32:44.729Z,7.30
2019-01-14T01:35:12.633Z,7.30
2019-01-14T01:37:38.935Z,7.20
2019-01-14T01:40:12.601Z,7.10
2019-01-14T01:42:38.853Z,7.10
2019-01-14T01:45:08.549Z,7.00
2019-01-14T01:47:34.980Z,7.00
2019-01-14T01:50:01.147Z,6.90
2019-01-14T01:52:27.354Z,6.90
2019-01-14T01:54:53.597Z,6.90
2019-01-14T01:57:19.831Z,6.90
2019-01-14T01:59:46.565Z,6.90
2019-01-14T02:02:13.190Z,6.90
2019-01-14T02:04:39.424Z,6.90
2019-01-14T02:07:05.625Z,6.90
2019-01-14T02:09:31.852Z,7.00
2019-01-14T02:11:58.222Z,7.00
2019-01-14T02:14:24.749Z,7.00
2019-01-14T02:16:51.039Z,7.10
2019-01-14T02:19:17.232Z,7.10
2019-01-14T02:21:43.430Z,7.20
2019-01-14T02:24:09.705Z,7.20
2019-01-14T02:26:35.963Z,7.30
2019-01-14T02:29:03.555Z,7.30
2019-01-14T02:31:29.774Z,7.30
2019-01-14T02:33:56.007Z,7.40
2019-01-14T02:36:22.205Z,7.40
2019-01-14T02:38:48.699Z,7.40
2019-01-14T02:41:14.926Z,7.50
2019-01-14T02:43:41.266Z,7.50
2019-01-14T02:46:07.500Z,7.50
2019-01-14T02:48:33.704Z,7.50
2019-01-14T02:50:59.894Z,7.50
2019-01-14T02:53:26.176Z,7.50
2019-01-14T02:55:52.656Z,7.50
2019-01-14T02:58:18.974Z,7.50
2019-01-14T03:00:45.165Z,7.50
2019-01-14T03:03:11.343Z,7.40
2019-01-14T03:05:37.636Z,7.40
2019-01-14T03:08:03.965Z,7.40
2019-01-14T03:10:30.156Z,7.40
2019-01-14T03:12:56.367Z,7.30
2019-01-14T03:15:23.197Z,7.30
2019-01-14T03:17:49.357Z,7.30
2019-01-14T03:20:16.075Z,7.20
2019-01-14T03:22:42.355Z,7.20
2019-01-14T03:25:11.200Z,7.20
2019-01-14T03:27:37.740Z,7.20
2019-01-14T03:30:09.372Z,7.20
2019-01-14T03:32:36.471Z,7.20
2019-01-14T03:35:05.539Z,7.20
2019-01-14T03:37:31.796Z,7.20
2019-01-14T03:39:58.025Z,7.20
2019-01-14T03:42:24.210Z,7.20
2019-01-14T03:44:50.452Z,7.20
2019-01-14T03:47:16.647Z,7.20
2019-01-14T03:49:42.911Z,7.20
2019-01-14T03:52:09.105Z,7.20
2019-01-14T03:54:35.538Z,7.20
2019-01-14T03:57:02.127Z,7.20
2019-01-14T03:59:28.370Z,7.20
2019-01-14T04:01:54.862Z,7.20
2019-01-14T04:04:21.067Z,7.20
2019-01-14T04:06:47.241Z,7.20
2019-01-14T04:09:13.440Z,7.20
2019-01-14T04:11:39.666Z,7.20
2019-01-14T04:14:05.869Z,7.20
2019-01-14T04:16:39.169Z,7.20
2019-01-14T04:19:05.399Z,7.20
2019-01-14T04:21:31.591Z,7.20
2019-01-14T04:23:57.954Z,7.20
2019-01-14T04:26:24.157Z,7.10
2019-01-14T04:28:50.366Z,7.10
2019-01-14T04:31:19.261Z,7.10
2019-01-14T04:33:45.457Z,7.10
2019-01-14T04:36:11.683Z,7.10
2019-01-14T04:38:38.404Z,7.10
2019-01-14T04:41:04.634Z,7.00
2019-01-14T04:43:30.816Z,7.00
2019-01-14T04:45:57.041Z,7.00
2019-01-14T04:48:23.257Z,7.00
2019-01-14T04:50:49.576Z,7.00
2019-01-14T04:53:15.690Z,6.90
2019-01-14T04:55:41.913Z,6.90
2019-01-14T04:58:08.164Z,6.90
2019-01-14T05:00:34.406Z,6.90
2019-01-14T05:03:00.988Z,6.90
2019-01-14T05:05:27.619Z,6.90
2019-01-14T05:07:54.157Z,6.80
2019-01-14T05:10:20.572Z,6.80
2019-01-14T05:12:47.045Z,6.80
2019-01-14T05:15:13.353Z,6.80
2019-01-14T05:17:39.726Z,6.80
2019-01-14T05:20:11.612Z,6.80
2019-01-14T05:22:37.938Z,6.70
2019-01-14T05:25:06.703Z,6.70
2019-01-14T05:27:33.473Z,6.70
2019-01-14T05:29:59.640Z,6.70
2019-01-14T05:32:25.956Z,6.70
2019-01-14T05:34:52.217Z,6.60
2019-01-14T05:37:18.420Z,6.60
2019-01-14T05:39:44.681Z,6.50
2019-01-14T05:42:10.895Z,6.50
2019-01-14T05:44:37.073Z,6.40
2019-01-14T05:47:03.333Z,6.40
2019-01-14T05:49:29.781Z,6.30
2019-01-14T05:51:56.025Z,6.20
2019-01-14T05:54:22.538Z,6.10
2019-01-14T05:56:48.995Z,6.10
2019-01-14T05:59:15.199Z,6.00
2019-01-14T06:01:41.468Z,5.90
2019-01-14T06:04:07.648Z,5.80
2019-01-14T06:06:33.879Z,5.80
2019-01-14T06:09:00.102Z,5.70
2019-01-14T06:11:26.324Z,5.60
2019-01-14T06:13:52.825Z,5.60
2019-01-14T06:16:19.041Z,5.50
2019-01-14T06:18:45.247Z,5.50
2019-01-14T06:21:11.480Z,5.50
2019-01-14T06:23:37.675Z,5.40
2019-01-14T06:26:04.100Z,5.40
2019-01-14T06:28:30.300Z,5.40
2019-01-14T06:30:56.554Z,5.40
2019-01-14T06:33:22.742Z,5.30
2019-01-14T06:35:48.948Z,5.40
2019-01-14T06:38:15.482Z,5.40
2019-01-14T06:40:41.684Z,5.40
2019-01-14T06:43:07.966Z,5.40
2019-01-14T06:45:34.166Z,5.30
2019-01-14T06:48:02.285Z,5.30
2019-01-14T06:50:28.472Z,5.30
2019-01-14T06:52:54.669Z,5.30
2019-01-14T06:55:20.988Z,5.30
2019-01-14T06:57:47.221Z,5.40
2019-01-14T07:00:24.093Z,5.30
2019-01-14T07:02:50.627Z,5.40
2019-01-14T07:05:18.432Z,5.40
2019-01-14T07:07:44.734Z,5.40
2019-01-14T07:10:16.615Z,5.40
2019-01-14T07:12:42.865Z,5.40
2019-01-14T07:15:09.358Z,5.40
2019-01-14T07:17:35.560Z,5.40
2019-01-14T07:20:05.048Z,5.50
2019-01-14T07:22:31.253Z,5.50
2019-01-14T07:24:57.594Z,5.50
2019-01-14T07:27:23.804Z,5.50
2019-01-14T07:29:51.136Z,5.60
2019-01-14T07:32:17.466Z,5.60
2019-01-14T07:34:43.639Z,5.60
2019-01-14T07:37:10.146Z,5.60
2019-01-14T07:39:36.377Z,5.70
2019-01-14T07:42:02.748Z,5.70
2019-01-14T07:44:29.978Z,5.70
2019-01-14T07:46:56.189Z,5.70
2019-01-14T07:49:22.393Z,5.70
2019-01-14T07:51:48.920Z,5.70
2019-01-14T07:54:15.052Z,5.70
2019-01-14T07:56:42.200Z,5.70
2019-01-14T07:59:08.924Z,5.70
2019-01-14T08:01:35.088Z,5.70
2019-01-14T08:04:01.320Z,5.70
2019-01-14T08:06:27.555Z,5.80
2019-01-14T08:08:53.785Z,5.80
2019-01-14T08:11:19.994Z,5.90
2019-01-14T08:13:46.745Z,5.90
2019-01-14T08:16:12.950Z,5.90
2019-01-14T08:18:39.147Z,6.00
2019-01-14T08:21:05.435Z,6.00
2019-01-14T08:23:31.694Z,6.00
2019-01-14T08:25:57.890Z,6.00
2019-01-14T08:28:24.108Z,6.00
2019-01-14T08:30:50.316Z,6.00
2019-01-14T08:33:16.546Z,6.00
2019-01-14T08:35:42.772Z,6.00
2019-01-14T08:38:11.875Z,6.00
2019-01-14T08:40:38.203Z,6.00
2019-01-14T08:43:04.875Z,6.10
2019-01-14T08:45:31.161Z,6.10
2019-01-14T08:47:57.495Z,6.20
2019-01-14T08:50:23.689Z,6.20
2019-01-14T08:52:50.268Z,6.30
2019-01-14T08:55:16.872Z,6.40
2019-01-14T08:57:43.192Z,6.40
2019-01-14T09:00:16.568Z,6.40
2019-01-14T09:02:44.765Z,6.40
2019-01-14T09:05:11.234Z,6.40
2019-01-14T09:07:39.594Z,6.40
2019-01-14T09:10:15.722Z,6.50
2019-01-14T09:12:43.175Z,6.40
2019-01-14T09:15:16.590Z,6.40
2019-01-14T09:17:43.528Z,6.50
2019-01-14T09:20:17.819Z,6.50
2019-01-14T09:22:44.077Z,6.50
2019-01-14T09:25:10.678Z,6.50
2019-01-14T09:27:37.648Z,6.50
2019-01-14T09:30:17.378Z,6.60
2019-01-14T09:32:44.180Z,6.70
2019-01-14T09:35:10.575Z,6.70
2019-01-14T09:37:36.790Z,6.80
2019-01-14T09:40:12.932Z,6.80
2019-01-14T09:42:39.351Z,6.90
2019-01-14T09:45:07.962Z,6.90
2019-01-14T09:47:34.202Z,6.90
2019-01-14T09:50:05.137Z,7.00
2019-01-14T09:52:31.653Z,7.00
2019-01-14T09:54:57.865Z,7.00
2019-01-14T09:57:24.044Z,6.90
2019-01-14T09:59:52.242Z,6.90
2019-01-14T10:02:21.660Z,6.90
2019-01-14T10:04:47.808Z,6.90
2019-01-14T10:07:14.029Z,6.90
2019-01-14T10:09:40.258Z,6.90
2019-01-14T10:12:06.510Z,6.90
2019-01-14T10:14:32.726Z,7.00
2019-01-14T10:16:59.132Z,7.00
2019-01-14T10:19:25.599Z,7.10
2019-01-14T10:21:51.754Z,7.10
2019-01-14T10:24:18.064Z,7.10
2019-01-14T10:26:44.407Z,7.10
2019-01-14T10:29:10.670Z,7.10
2019-01-14T10:31:37.058Z,7.10
2019-01-14T10:34:03.374Z,7.10
2019-01-14T10:36:29.634Z,7.10
2019-01-14T10:38:55.846Z,7.10
2019-01-14T10:41:22.053Z,7.10
2019-01-14T10:43:48.257Z,7.10
2019-01-14T10:46:14.556Z,7.10
2019-01-14T10:48:40.764Z,7.10
2019-01-14T10:51:07.375Z,7.10
2019-01-14T10:53:33.603Z,7.20
2019-01-14T10:55:59.771Z,7.30
2019-01-14T10:58:26.112Z,7.60
2019-01-14T11:00:52.300Z,7.90
2019-01-14T11:03:18.532Z,8.20
2019-01-14T11:05:44.820Z,8.40
2019-01-14T11:08:10.988Z,8.70
2019-01-14T11:10:37.213Z,8.90
2019-01-14T11:13:04.031Z,9.10
2019-01-14T11:15:30.253Z,9.40
2019-01-14T11:17:56.417Z,9.60
2019-01-14T11:20:26.461Z,9.60
2019-01-14T11:22:52.757Z,9.70
2019-01-14T11:25:19.159Z,9.70
2019-01-14T11:27:45.337Z,9.70
2019-01-14T11:30:22.106Z,9.70
2019-01-14T11:32:48.592Z,9.70
2019-01-14T11:35:14.888Z,9.60
2019-01-14T11:37:41.088Z,9.50
2019-01-14T11:40:11.494Z,9.40
2019-01-14T11:42:37.675Z,9.30
2019-01-14T11:45:08.287Z,9.20
2019-01-14T11:47:34.475Z,9.00
2019-01-14T11:50:00.775Z,8.90
2019-01-14T11:52:26.948Z,8.80
2019-01-14T11:54:53.247Z,8.60
2019-01-14T11:57:21.555Z,8.50
2019-01-14T11:59:48.096Z,8.30
2019-01-14T12:02:14.389Z,8.20
2019-01-14T12:04:42.499Z,8.00
2019-01-14T12:07:08.676Z,7.90
2019-01-14T12:09:36.797Z,7.80
2019-01-14T12:12:03.190Z,7.70
2019-01-14T12:14:31.375Z,7.70
2019-01-14T12:16:59.536Z,7.60
2019-01-14T12:19:25.777Z,7.60
2019-01-14T12:21:51.982Z,7.50
2019-01-14T12:24:18.353Z,7.70
2019-01-14T12:26:44.959Z,7.90
2019-01-14T12:29:13.679Z,8.20
2019-01-14T12:31:40.246Z,8.50
2019-01-14T12:34:06.459Z,8.70
2019-01-14T12:36:32.641Z,8.90
2019-01-14T12:39:00.759Z,9.00
2019-01-14T12:41:29.025Z,9.00
2019-01-14T12:43:55.367Z,8.80
2019-01-14T12:46:21.792Z,8.60
2019-01-14T12:48:52.537Z,8.30
2019-01-14T12:51:18.855Z,7.90
2019-01-14T12:53:45.140Z,7.60
2019-01-14T12:56:11.338Z,7.30
2019-01-14T12:58:37.692Z,7.10
2019-01-14T13:01:03.946Z,6.90
2019-01-14T13:03:31.185Z,6.80
2019-01-14T13:05:57.383Z,6.90
2019-01-14T13:08:23.567Z,7.00
2019-01-14T13:10:50.235Z,7.20
2019-01-14T13:13:16.748Z,7.40
2019-01-14T13:15:42.956Z,7.70
2019-01-14T13:18:09.113Z,8.00
2019-01-14T13:20:35.398Z,8.20
2019-01-14T13:23:01.612Z,8.40
2019-01-14T13:25:27.817Z,8.40
2019-01-14T13:27:56.806Z,8.40
2019-01-14T13:30:26.926Z,8.30
2019-01-14T13:32:56.597Z,8.10
2019-01-14T13:35:22.929Z,8.00
2019-01-14T13:37:50.079Z,7.80
2019-01-14T13:40:16.346Z,7.60
2019-01-14T13:42:42.737Z,7.40
2019-01-14T13:45:18.187Z,7.20
2019-01-14T13:47:44.605Z,7.00
2019-01-14T13:50:14.916Z,6.80
2019-01-14T13:52:44.131Z,6.70
2019-01-14T13:55:10.701Z,6.50
2019-01-14T13:57:36.927Z,6.30
2019-01-14T14:00:11.406Z,6.20
2019-01-14T14:02:37.584Z,6.10
2019-01-14T14:05:06.121Z,5.90
2019-01-14T14:07:32.372Z,5.80
2019-01-14T14:09:58.567Z,5.70
2019-01-14T14:12:24.816Z,5.60
2019-01-14T14:14:51.012Z,5.50
2019-01-14T14:17:17.669Z,5.50
2019-01-14T14:19:43.827Z,5.40
2019-01-14T14:22:11.749Z,5.30
2019-01-14T14:24:38.247Z,5.30
2019-01-14T14:27:04.523Z,5.20
2019-01-14T14:29:30.743Z,5.10
2019-01-14T14:31:56.941Z,4.90
2019-01-14T14:34:23.120Z,4.80
2019-01-14T14:36:49.695Z,4.70
2019-01-14T14:39:15.886Z,4.50
2019-01-14T14:41:42.093Z,4.40
2019-01-14T14:44:08.309Z,4.30
2019-01-14T14:46:34.844Z,4.20
2019-01-14T14:49:01.024Z,4.10
2019-01-14T14:51:27.237Z,4.00
2019-01-14T14:53:53.756Z,4.00
2019-01-14T14:56:20.008Z,3.90
2019-01-14T14:58:46.262Z,3.90
2019-01-14T15:01:12.759Z,3.90
2019-01-14T15:03:38.929Z,3.80
2019-01-14T15:06:05.142Z,3.80
2019-01-14T15:08:31.680Z,3.80
2019-01-14T15:11:00.828Z,3.80
2019-01-14T15:13:27.005Z,3.80
2019-01-14T15:15:53.236Z,3.80
2019-01-14T15:18:19.766Z,3.80
2019-01-14T15:20:45.950Z,3.90
2019-01-14T15:23:12.172Z,3.90
2019-01-14T15:25:38.356Z,3.90
2019-01-14T15:28:04.562Z,3.90
2019-01-14T15:30:31.149Z,3.90
2019-01-14T15:32:57.395Z,3.90
2019-01-14T15:35:24.996Z,3.90
2019-01-14T15:37:51.317Z,3.90
2019-01-14T15:40:19.398Z,3.90
2019-01-14T15:42:45.637Z,3.90
2019-01-14T15:45:18.091Z,3.80
2019-01-14T15:47:44.434Z,3.80
2019-01-14T15:50:12.503Z,3.70
2019-01-14T15:52:38.719Z,3.70
2019-01-14T15:55:12.992Z,3.70
2019-01-14T15:57:39.308Z,3.60
2019-01-14T16:00:12.297Z,3.50
2019-01-14T16:02:38.553Z,3.50
2019-01-14T16:05:05.946Z,3.50
2019-01-14T16:07:32.185Z,3.40
2019-01-14T16:09:58.668Z,3.30
2019-01-14T16:12:24.891Z,3.30
2019-01-14T16:14:51.099Z,3.20
2019-01-14T16:17:17.350Z,3.20
2019-01-14T16:19:43.540Z,3.20
2019-01-14T16:22:09.756Z,3.20
2019-01-14T16:24:35.959Z,3.10
2019-01-14T16:27:03.651Z,3.10
2019-01-14T16:29:29.833Z,3.10
2019-01-14T16:31:56.075Z,3.00
2019-01-14T16:34:22.244Z,3.00
2019-01-14T16:36:48.427Z,3.00
2019-01-14T16:39:14.746Z,2.90
2019-01-14T16:41:40.937Z,2.90
2019-01-14T16:44:07.429Z,2.90
2019-01-14T16:46:33.634Z,2.90
2019-01-14T16:48:59.862Z,2.90
2019-01-14T16:51:26.377Z,2.80
2019-01-14T16:53:52.731Z,2.80
2019-01-14T16:56:18.908Z,2.80
2019-01-14T16:58:45.248Z,2.80
2019-01-14T17:01:12.117Z,2.80
2019-01-14T17:03:38.318Z,2.80
2019-01-14T17:06:04.536Z,2.80
2019-01-14T17:08:30.805Z,2.70
2019-01-14T17:10:56.979Z,2.70
2019-01-14T17:13:23.513Z,2.70
2019-01-14T17:15:49.731Z,2.70
2019-01-14T17:18:15.950Z,2.70
2019-01-14T17:20:42.452Z,2.70
2019-01-14T17:23:08.942Z,2.70
2019-01-14T17:25:35.168Z,2.70
2019-01-14T17:28:02.077Z,2.60
2019-01-14T17:30:28.257Z,2.60
2019-01-14T17:32:54.648Z,2.60
2019-01-14T17:35:20.855Z,2.60
2019-01-14T17:37:47.100Z,2.60
2019-01-14T17:40:17.302Z,2.60
2019-01-14T17:42:43.656Z,2.60
2019-01-14T17:45:09.960Z,2.60
2019-01-14T17:47:37.586Z,2.60
2019-01-14T17:50:09.056Z,2.60
2019-01-14T17:52:35.213Z,2.50
2019-01-14T17:55:01.457Z,2.50
2019-01-14T17:57:27.721Z,2.50
2019-01-14T17:59:54.008Z,2.50
2019-01-14T18:02:27.798Z,2.50
2019-01-14T18:04:53.869Z,2.50
2019-01-14T18:07:20.061Z,2.50
2019-01-14T18:09:46.299Z,2.50
2019-01-14T18:12:12.505Z,2.50
2019-01-14T18:14:40.318Z,2.50
2019-01-14T18:17:06.517Z,2.50
2019-01-14T18:19:32.777Z,2.50
2019-01-14T18:21:59.262Z,2.50
2019-01-14T18:24:25.512Z,2.50
2019-01-14T18:26:51.893Z,2.50
2019-01-14T18:29:18.195Z,2.50
2019-01-14T18:31:44.395Z,2.50
2019-01-14T18:34:10.706Z,2.50
2019-01-14T18:36:36.894Z,2.50
2019-01-14T18:39:06.308Z,2.50
2019-01-14T18:41:32.570Z,2.50
2019-01-14T18:43:58.785Z,2.50
2019-01-14T18:46:25.197Z,2.50
2019-01-14T18:48:51.451Z,2.50
2019-01-14T18:51:17.630Z,2.40
2019-01-14T18:53:43.813Z,2.40
2019-01-14T18:56:10.454Z,2.40
2019-01-14T18:58:36.781Z,2.40
2019-01-14T19:01:02.993Z,2.40
2019-01-14T19:03:29.183Z,2.40
2019-01-14T19:05:56.299Z,2.40
2019-01-14T19:08:22.475Z,2.40
2019-01-14T19:10:54.329Z,2.40
2019-01-14T19:13:17.159Z,2.40
2019-01-14T19:15:43.494Z,2.40
2019-01-14T19:18:10.082Z,2.40
2019-01-14T19:20:37.084Z,2.40
2019-01-14T19:23:03.893Z,2.40
2019-01-14T19:25:30.488Z,2.40
2019-01-14T19:27:56.632Z,2.40
2019-01-14T19:30:25.605Z,2.40
2019-01-14T19:32:51.818Z,2.40
2019-01-14T19:35:18.109Z,2.40
2019-01-14T19:37:44.420Z,2.40
2019-01-14T19:40:14.745Z,2.40
2019-01-14T19:42:40.933Z,2.50
2019-01-14T19:45:10.510Z,2.40
2019-01-14T19:47:40.142Z,2.40
2019-01-14T19:50:14.427Z,2.40
2019-01-14T19:52:40.584Z,2.40
2019-01-14T19:55:07.021Z,2.40
2019-01-14T19:57:33.287Z,2.40
2019-01-14T20:00:01.775Z,2.40
2019-01-14T20:02:29.940Z,2.40
2019-01-14T20:04:56.498Z,2.40
2019-01-14T20:07:24.747Z,2.40
2019-01-14T20:09:50.948Z,2.40
2019-01-14T20:12:18.453Z,2.40
2019-01-14T20:14:47.021Z,2.40
2019-01-14T20:17:13.366Z,2.40
2019-01-14T20:19:43.726Z,2.40
2019-01-14T20:22:09.998Z,2.40
2019-01-14T20:24:36.201Z,2.40
2019-01-14T20:27:05.533Z,2.40
2019-01-14T20:29:34.143Z,2.40
2019-01-14T20:32:05.619Z,2.40
2019-01-14T20:34:32.214Z,2.40
2019-01-14T20:36:58.646Z,2.40
2019-01-14T20:39:28.975Z,2.40
2019-01-14T20:41:58.142Z,2.40
2019-01-14T20:44:27.313Z,2.40
2019-01-14T20:46:54.428Z,2.40
2019-01-14T20:49:20.687Z,2.40
2019-01-14T20:51:47.230Z,2.40
2019-01-14T20:54:13.549Z,2.40
2019-01-14T20:56:40.107Z,2.40
2019-01-14T20:59:06.866Z,2.50
2019-01-14T21:01:33.221Z,2.50
2019-01-14T21:03:59.868Z,2.50
2019-01-14T21:06:28.181Z,2.50
2019-01-14T21:08:55.383Z,2.50
2019-01-14T21:11:24.073Z,2.50
2019-01-14T21:13:53.276Z,2.50
2019-01-14T21:16:20.242Z,2.50
2019-01-14T21:18:48.383Z,2.60
2019-01-14T21:21:15.110Z,2.50
2019-01-14T21:23:41.466Z,2.60
2019-01-14T21:26:12.894Z,2.60
2019-01-14T21:28:44.380Z,2.60
2019-01-14T21:31:10.869Z,2.60
2019-01-14T21:33:38.396Z,2.60
2019-01-14T21:36:05.449Z,2.60
2019-01-14T21:38:31.908Z,2.60
2019-01-14T21:40:58.644Z,2.60
2019-01-14T21:43:25.122Z,2.60
2019-01-14T21:45:51.924Z,2.60
2019-01-14T21:48:18.194Z,2.60
2019-01-14T21:50:47.757Z,2.60
2019-01-14T21:53:14.359Z,2.70
2019-01-14T21:55:41.769Z,2.70
2019-01-14T21:58:11.409Z,2.70
2019-01-14T22:00:38.198Z,2.70
2019-01-14T22:03:05.090Z,2.70
2019-01-14T22:05:33.964Z,2.70
2019-01-14T22:08:02.638Z,2.70
2019-01-14T22:10:28.925Z,2.70
2019-01-14T22:12:55.332Z,2.70
2019-01-14T22:15:21.945Z,2.70
2019-01-14T22:17:48.203Z,2.70
2019-01-14T22:20:21.428Z,2.70
2019-01-14T22:22:47.694Z,2.70
2019-01-14T22:25:13.925Z,2.70
2019-01-14T22:27:40.299Z,2.70
2019-01-14T22:30:16.926Z,2.80
2019-01-14T22:32:43.220Z,2.80
2019-01-14T22:35:09.450Z,2.80
2019-01-14T22:37:42.407Z,2.80
2019-01-14T22:40:13.508Z,2.80
2019-01-14T22:42:39.677Z,2.80
2019-01-14T22:45:08.925Z,2.80
2019-01-14T22:47:35.317Z,2.80
2019-01-14T22:50:05.931Z,2.90
2019-01-14T22:52:32.274Z,2.90
2019-01-14T22:54:58.457Z,3.00
2019-01-14T22:57:24.799Z,3.10
2019-01-14T22:59:51.019Z,3.10
2019-01-14T23:02:17.213Z,3.10
2019-01-14T23:04:43.725Z,3.20
2019-01-14T23:07:10.027Z,3.30
2019-01-14T23:09:36.375Z,3.30
2019-01-14T23:12:02.915Z,3.30
2019-01-14T23:14:29.148Z,3.40
2019-01-14T23:16:55.484Z,3.40
2019-01-14T23:19:21.749Z,3.40
2019-01-14T23:21:47.933Z,3.40
2019-01-14T23:24:14.216Z,3.50
2019-01-14T23:26:40.383Z,3.50
2019-01-14T23:29:06.673Z,3.50
2019-01-14T23:31:33.133Z,3.50
2019-01-14T23:33:59.377Z,3.60
2019-01-14T23:36:26.017Z,3.60
2019-01-14T23:38:52.415Z,3.60
2019-01-14T23:41:20.597Z,3.60
2019-01-14T23:43:46.763Z,3.70
2019-01-14T23:46:13.006Z,3.70
2019-01-14T23:48:39.230Z,3.70
2019-01-14T23:51:05.458Z,3.70
2019-01-14T23:53:31.959Z,3.80
2019-01-14T23:55:58.288Z,3.80
2019-01-14T23:58:24.674Z,3.80
